TAF KASD
KASD 270521Z 2706/2806 VRB04KT P6SM OVC250 FM271900 17006KT P6SM OVC250 FM280100 VRB04KT P6SM SCT040 BKN080=
METAR KASD
WC KASD
WS KASD
WV KASD